createdAt,value
2018-08-13T00:02:11.152Z,17.40
2018-08-13T00:04:43.529Z,17.40
2018-08-13T00:07:15.861Z,17.10
2018-08-13T00:09:47.033Z,17.40
2018-08-13T00:12:17.429Z,17.30
2018-08-13T00:14:52.054Z,17.40
2018-08-13T00:17:23.101Z,17.20
2018-08-13T00:19:54.230Z,17.30
2018-08-13T00:22:25.530Z,17.30
2018-08-13T00:24:55.926Z,17.30
2018-08-13T00:27:26.598Z,17.30
2018-08-13T00:29:57.464Z,17.20
2018-08-13T00:32:28.561Z,17.20
2018-08-13T00:35:01.179Z,17.40
2018-08-13T00:37:35.180Z,17.20
2018-08-13T00:40:10.699Z,17.20
2018-08-13T00:42:42.630Z,17.10
2018-08-13T00:45:14.488Z,17.00
2018-08-13T00:47:45.338Z,17.30
2018-08-13T00:50:17.193Z,17.20
2018-08-13T00:52:50.735Z,17.00
2018-08-13T00:55:23.753Z,17.20
2018-08-13T00:57:55.234Z,16.90
2018-08-13T01:00:26.702Z,17.00
2018-08-13T01:02:57.368Z,16.90
2018-08-13T01:05:28.026Z,16.90
2018-08-13T01:08:00.716Z,17.00
2018-08-13T01:10:33.948Z,16.90
2018-08-13T01:13:06.525Z,16.80
2018-08-13T01:15:40.114Z,16.90
2018-08-13T01:18:12.922Z,16.60
2018-08-13T01:20:50.329Z,16.60
2018-08-13T01:23:20.651Z,16.50
2018-08-13T01:25:51.972Z,16.80
2018-08-13T01:28:22.430Z,16.70
2018-08-13T01:30:53.077Z,16.70
2018-08-13T01:33:23.435Z,16.60
2018-08-13T01:35:53.799Z,16.50
2018-08-13T01:38:24.201Z,16.60
2018-08-13T01:40:55.085Z,16.50
2018-08-13T01:43:25.365Z,16.30
2018-08-13T01:45:55.974Z,16.50
2018-08-13T01:48:26.244Z,16.40
2018-08-13T01:50:56.959Z,16.30
2018-08-13T01:53:27.457Z,16.00
2018-08-13T01:55:57.864Z,16.30
2018-08-13T01:58:28.241Z,15.90
2018-08-13T02:00:58.755Z,15.90
2018-08-13T02:03:29.107Z,16.00
2018-08-13T02:05:59.567Z,16.10
2018-08-13T02:08:29.881Z,16.20
2018-08-13T02:11:00.454Z,16.20
2018-08-13T02:13:30.767Z,16.20
2018-08-13T02:16:01.201Z,16.20
2018-08-13T02:18:31.553Z,16.10
2018-08-13T02:21:02.163Z,16.10
2018-08-13T02:23:32.506Z,15.80
2018-08-13T02:26:03.369Z,15.90
2018-08-13T02:28:33.802Z,15.80
2018-08-13T02:31:04.273Z,15.70
2018-08-13T02:33:34.625Z,15.60
2018-08-13T02:36:05.054Z,15.70
2018-08-13T02:38:35.481Z,15.60
2018-08-13T02:41:06.060Z,15.80
2018-08-13T02:43:36.377Z,15.60
2018-08-13T02:46:06.992Z,15.80
2018-08-13T02:48:37.263Z,16.00
2018-08-13T02:51:07.590Z,16.10
2018-08-13T02:53:37.911Z,15.80
2018-08-13T02:56:08.727Z,15.90
2018-08-13T02:58:39.070Z,16.00
2018-08-13T03:01:09.391Z,16.20
2018-08-13T03:03:39.769Z,15.90
2018-08-13T03:06:11.138Z,16.00
2018-08-13T03:08:41.482Z,16.00
2018-08-13T03:11:11.761Z,15.90
2018-08-13T03:13:42.120Z,15.80
2018-08-13T03:16:12.428Z,15.90
2018-08-13T03:18:42.747Z,15.50
2018-08-13T03:21:13.090Z,15.70
2018-08-13T03:23:44.447Z,15.10
2018-08-13T03:26:14.751Z,15.40
2018-08-13T03:28:45.082Z,15.60
2018-08-13T03:31:16.476Z,15.20
2018-08-13T03:33:47.425Z,15.50
2018-08-13T03:36:17.869Z,15.30
2018-08-13T03:38:49.317Z,15.80
2018-08-13T03:41:19.997Z,15.60
2018-08-13T03:43:50.569Z,15.60
2018-08-13T03:46:20.890Z,15.50
2018-08-13T03:48:51.308Z,15.60
2018-08-13T03:51:21.675Z,15.40
2018-08-13T03:53:52.320Z,15.30
2018-08-13T03:56:22.911Z,15.50
2018-08-13T03:58:53.358Z,15.50
2018-08-13T04:01:23.749Z,15.60
2018-08-13T04:03:54.505Z,15.60
2018-08-13T04:06:24.918Z,15.80
2018-08-13T04:08:55.273Z,15.70
2018-08-13T04:11:25.613Z,15.50
2018-08-13T04:13:55.925Z,15.60
2018-08-13T04:16:26.193Z,15.10
2018-08-13T04:18:56.509Z,15.50
2018-08-13T04:21:27.799Z,15.60
2018-08-13T04:23:58.135Z,15.60
2018-08-13T04:26:28.362Z,15.60
2018-08-13T04:28:58.686Z,15.50
2018-08-13T04:31:29.017Z,15.50
2018-08-13T04:33:59.390Z,15.60
2018-08-13T04:36:29.674Z,15.80
2018-08-13T04:38:59.999Z,15.70
2018-08-13T04:41:30.371Z,15.50
2018-08-13T04:44:01.118Z,15.80
2018-08-13T04:46:31.354Z,15.60
2018-08-13T04:49:03.795Z,15.70
2018-08-13T04:51:34.452Z,15.60
2018-08-13T04:54:05.494Z,15.70
2018-08-13T04:56:35.763Z,15.70
2018-08-13T04:59:06.087Z,15.80
2018-08-13T05:01:36.377Z,15.90
2018-08-13T05:04:06.798Z,16.20
2018-08-13T05:06:37.194Z,15.90
2018-08-13T05:09:09.692Z,15.90
2018-08-13T05:11:40.611Z,16.00
2018-08-13T05:14:10.934Z,16.10
2018-08-13T05:16:41.278Z,16.10
2018-08-13T05:19:11.666Z,16.30
2018-08-13T05:21:41.953Z,16.20
2018-08-13T05:24:12.323Z,16.50
2018-08-13T05:26:42.747Z,16.70
2018-08-13T05:29:13.078Z,17.00
2018-08-13T05:31:43.373Z,17.00
2018-08-13T05:34:13.952Z,17.00
2018-08-13T05:36:44.226Z,17.10
2018-08-13T05:39:14.570Z,17.60
2018-08-13T05:41:44.937Z,17.40
2018-08-13T05:44:15.318Z,17.70
2018-08-13T05:46:45.942Z,17.70
2018-08-13T05:49:16.300Z,18.10
2018-08-13T05:51:47.082Z,18.20
2018-08-13T05:54:17.739Z,18.50
2018-08-13T05:56:48.113Z,18.70
2018-08-13T05:59:18.649Z,18.90
2018-08-13T06:01:49.040Z,18.70
2018-08-13T06:04:19.425Z,19.10
2018-08-13T06:06:49.984Z,19.10
2018-08-13T06:09:20.348Z,19.00
2018-08-13T06:11:50.813Z,19.20
2018-08-13T06:14:21.386Z,19.30
2018-08-13T06:16:51.894Z,19.60
2018-08-13T06:19:22.250Z,19.80
2018-08-13T06:21:52.828Z,19.90
2018-08-13T06:24:23.402Z,20.10
2018-08-13T06:26:53.905Z,20.30
2018-08-13T06:29:24.385Z,20.70
2018-08-13T06:31:55.137Z,20.80
2018-08-13T06:34:25.506Z,21.00
2018-08-13T06:36:56.077Z,20.60
2018-08-13T06:39:26.494Z,21.30
2018-08-13T06:41:56.967Z,21.50
2018-08-13T06:44:27.386Z,21.60
2018-08-13T06:46:57.743Z,21.90
2018-08-13T06:49:28.151Z,22.20
2018-08-13T06:51:58.556Z,22.30
2018-08-13T06:54:28.925Z,22.60
2018-08-13T06:56:59.322Z,22.70
2018-08-13T06:59:29.746Z,23.10
2018-08-13T07:02:00.035Z,23.20
2018-08-13T07:04:30.945Z,23.40
2018-08-13T07:07:01.241Z,23.40
2018-08-13T07:09:31.741Z,23.40
2018-08-13T07:12:02.673Z,23.60
2018-08-13T07:14:33.224Z,23.80
2018-08-13T07:17:03.607Z,23.80
2018-08-13T07:19:34.166Z,24.10
2018-08-13T07:22:07.806Z,24.20
2018-08-13T07:24:38.119Z,24.50
2018-08-13T07:27:08.466Z,24.80
2018-08-13T07:29:38.785Z,25.20
2018-08-13T07:32:09.101Z,25.60
2018-08-13T07:34:39.397Z,26.10
2018-08-13T07:37:10.074Z,26.10
2018-08-13T07:39:40.417Z,26.80
2018-08-13T07:42:10.863Z,26.90
2018-08-13T07:44:41.158Z,27.40
2018-08-13T07:47:11.522Z,27.80
2018-08-13T07:49:41.827Z,28.20
2018-08-13T07:52:12.177Z,28.60
2018-08-13T07:54:42.518Z,28.80
2018-08-13T07:57:13.034Z,29.00
2018-08-13T07:59:43.295Z,29.20
2018-08-13T08:02:13.763Z,29.20
2018-08-13T08:04:44.213Z,29.10
2018-08-13T08:07:14.800Z,29.10
2018-08-13T08:09:45.097Z,29.30
2018-08-13T08:12:15.520Z,29.20
2018-08-13T08:14:46.352Z,29.10
2018-08-13T08:17:17.138Z,29.10
2018-08-13T08:19:47.725Z,28.80
2018-08-13T08:22:18.280Z,28.20
2018-08-13T08:24:48.962Z,27.80
2018-08-13T08:27:19.347Z,27.40
2018-08-13T08:29:49.723Z,27.30
2018-08-13T08:32:20.179Z,27.30
2018-08-13T08:34:50.980Z,27.70
2018-08-13T08:37:21.309Z,27.90
2018-08-13T08:39:51.706Z,27.80
2018-08-13T08:42:22.046Z,27.70
2018-08-13T08:44:52.382Z,27.90
2018-08-13T08:47:23.293Z,28.30
2018-08-13T08:49:53.864Z,28.90
2018-08-13T08:52:24.208Z,29.40
2018-08-13T08:54:54.757Z,29.50
2018-08-13T08:57:25.206Z,29.20
2018-08-13T08:59:55.669Z,29.00
2018-08-13T09:02:26.015Z,28.70
2018-08-13T09:04:56.638Z,28.40
2018-08-13T09:07:27.042Z,28.50
2018-08-13T09:09:57.541Z,28.40
2018-08-13T09:12:27.950Z,28.60
2018-08-13T09:14:58.358Z,28.90
2018-08-13T09:17:45.990Z,29.20
2018-08-13T09:20:33.209Z,29.40
2018-08-13T09:23:20.366Z,29.50
2018-08-13T09:26:07.517Z,29.50
2018-08-13T09:28:54.395Z,29.60
2018-08-13T09:31:41.745Z,29.70
2018-08-13T09:34:33.716Z,29.40
2018-08-13T09:37:04.034Z,29.30
2018-08-13T09:39:34.449Z,29.50
2018-08-13T09:42:04.973Z,29.60
2018-08-13T09:44:35.260Z,29.50
2018-08-13T09:47:05.652Z,29.60
2018-08-13T09:49:37.617Z,30.30
2018-08-13T09:52:08.085Z,31.00
2018-08-13T09:54:38.423Z,31.40
2018-08-13T09:57:08.834Z,32.00
2018-08-13T09:59:39.274Z,32.30
2018-08-13T10:02:09.724Z,32.80
2018-08-13T10:04:40.323Z,32.30
2018-08-13T10:07:10.696Z,32.60
2018-08-13T10:09:41.233Z,32.70
2018-08-13T10:12:11.806Z,32.50
2018-08-13T10:14:42.170Z,32.40
2018-08-13T10:17:12.507Z,32.40
2018-08-13T10:19:42.838Z,31.50
2018-08-13T10:22:13.285Z,30.70
2018-08-13T10:24:43.610Z,30.10
2018-08-13T10:27:14.112Z,29.80
2018-08-13T10:29:45.089Z,30.00
2018-08-13T10:32:15.403Z,30.10
2018-08-13T10:34:46.022Z,29.90
2018-08-13T10:37:17.009Z,29.80
2018-08-13T10:39:47.657Z,29.60
2018-08-13T10:42:18.723Z,29.80
2018-08-13T10:44:49.182Z,30.50
2018-08-13T10:47:19.649Z,31.40
2018-08-13T10:49:50.038Z,32.20
2018-08-13T10:52:20.669Z,31.90
2018-08-13T10:54:51.829Z,31.20
2018-08-13T10:57:22.645Z,30.50
2018-08-13T10:59:53.247Z,29.90
2018-08-13T11:02:23.694Z,29.50
2018-08-13T11:04:54.799Z,29.90
2018-08-13T11:07:25.439Z,30.00
2018-08-13T11:09:56.698Z,30.40
2018-08-13T11:12:27.461Z,30.60
2018-08-13T11:14:57.928Z,31.00
2018-08-13T11:17:28.294Z,31.60
2018-08-13T11:19:58.646Z,31.60
2018-08-13T11:22:29.098Z,31.70
2018-08-13T11:24:59.466Z,31.80
2018-08-13T11:27:29.782Z,31.40
2018-08-13T11:30:00.273Z,30.70
2018-08-13T11:32:31.040Z,30.40
2018-08-13T11:35:01.373Z,30.50
2018-08-13T11:37:31.700Z,30.80
2018-08-13T11:40:02.461Z,30.90
2018-08-13T11:42:36.435Z,30.50
2018-08-13T11:45:07.514Z,30.30
2018-08-13T11:47:38.979Z,29.90
2018-08-13T11:50:20.370Z,29.70
2018-08-13T11:52:51.606Z,29.30
2018-08-13T11:55:22.032Z,29.40
2018-08-13T11:57:52.470Z,29.20
2018-08-13T12:00:22.948Z,29.50
2018-08-13T12:02:53.983Z,29.40
2018-08-13T12:05:24.370Z,29.70
2018-08-13T12:07:56.009Z,29.60
2018-08-13T12:10:27.626Z,29.30
2018-08-13T12:12:58.796Z,29.30
2018-08-13T12:15:29.689Z,28.90
2018-08-13T12:18:00.954Z,28.70
2018-08-13T12:20:31.421Z,28.40
2018-08-13T12:23:01.990Z,28.30
2018-08-13T12:25:32.756Z,28.30
2018-08-13T12:28:03.130Z,28.20
2018-08-13T12:30:33.581Z,28.20
2018-08-13T12:33:04.524Z,27.90
2018-08-13T12:35:35.418Z,27.90
2018-08-13T12:38:06.827Z,27.60
2018-08-13T12:40:37.331Z,27.20
2018-08-13T12:43:08.656Z,26.60
2018-08-13T12:45:39.997Z,26.70
2018-08-13T12:48:10.939Z,26.50
2018-08-13T12:51:45.778Z,26.30
2018-08-13T12:54:17.699Z,26.20
2018-08-13T12:56:49.356Z,26.30
2018-08-13T12:59:21.194Z,26.40
2018-08-13T13:01:52.419Z,26.40
2018-08-13T13:04:24.135Z,26.20
2018-08-13T13:06:56.695Z,26.20
2018-08-13T13:09:29.025Z,26.20
2018-08-13T13:12:01.330Z,26.60
2018-08-13T13:14:34.734Z,26.50
2018-08-13T13:17:06.363Z,27.00
2018-08-13T13:19:37.960Z,26.90
2018-08-13T13:24:32.126Z,27.30
2018-08-13T13:27:02.446Z,27.30
2018-08-13T13:29:32.705Z,27.10
2018-08-13T13:32:03.497Z,27.20
2018-08-13T13:34:33.863Z,27.10
2018-08-13T13:37:04.322Z,27.00
2018-08-13T13:39:34.663Z,26.80
2018-08-13T13:42:05.046Z,26.60
2018-08-13T13:44:35.514Z,26.60
2018-08-13T13:47:06.094Z,26.40
2018-08-13T13:49:36.590Z,26.40
2018-08-13T13:52:07.086Z,26.30
2018-08-13T13:54:37.390Z,26.30
2018-08-13T13:57:07.862Z,26.00
2018-08-13T13:59:38.123Z,25.90
2018-08-13T14:02:08.476Z,26.00
2018-08-13T14:04:38.778Z,26.00
2018-08-13T14:07:09.330Z,25.70
2018-08-13T14:09:39.686Z,25.70
2018-08-13T14:12:10.047Z,25.70
2018-08-13T14:14:40.477Z,25.70
2018-08-13T14:17:10.976Z,25.70
2018-08-13T14:19:41.473Z,25.40
2018-08-13T14:22:11.801Z,25.50
2018-08-13T14:24:42.186Z,25.30
2018-08-13T14:27:12.590Z,24.90
2018-08-13T14:29:43.019Z,25.00
2018-08-13T14:32:13.399Z,25.30
2018-08-13T14:35:47.597Z,25.50
2018-08-13T14:38:18.131Z,25.80
2018-08-13T14:40:48.908Z,26.10
2018-08-13T14:43:20.024Z,26.50
2018-08-13T14:45:50.594Z,26.70
2018-08-13T14:48:23.046Z,27.00
2018-08-13T14:50:56.582Z,27.20
2018-08-13T14:53:27.950Z,27.60
2018-08-13T14:55:59.503Z,28.40
2018-08-13T14:58:30.982Z,29.20
2018-08-13T15:01:03.010Z,29.70
2018-08-13T15:03:34.283Z,29.80
2018-08-13T15:06:05.856Z,30.20
2018-08-13T15:08:36.746Z,30.60
2018-08-13T15:11:08.365Z,30.90
2018-08-13T15:13:39.177Z,30.70
2018-08-13T15:16:10.625Z,30.30
2018-08-13T15:18:41.043Z,30.20
2018-08-13T15:21:12.827Z,30.00
2018-08-13T15:23:43.167Z,29.90
2018-08-13T15:26:13.766Z,29.50
2018-08-13T15:28:44.136Z,29.20
2018-08-13T15:31:14.690Z,28.60
2018-08-13T15:33:45.105Z,28.70
2018-08-13T15:36:15.743Z,28.60
2018-08-13T15:38:47.113Z,28.50
2018-08-13T15:41:17.621Z,28.60
2018-08-13T15:43:48.835Z,28.50
2018-08-13T15:46:19.673Z,28.60
2018-08-13T15:48:50.851Z,28.20
2018-08-13T15:51:21.273Z,28.20
2018-08-13T15:53:51.944Z,28.20
2018-08-13T15:56:22.546Z,27.90
2018-08-13T15:58:53.442Z,28.00
2018-08-13T16:01:23.904Z,27.70
2018-08-13T16:03:54.752Z,27.70
2018-08-13T16:06:26.155Z,27.30
2018-08-13T16:08:56.746Z,26.70
2018-08-13T16:11:27.094Z,26.40
2018-08-13T16:13:57.495Z,25.80
2018-08-13T16:16:27.892Z,25.50
2018-08-13T16:18:59.114Z,25.10
2018-08-13T16:21:29.668Z,25.00
2018-08-13T16:24:02.292Z,24.80
2018-08-13T16:26:33.153Z,24.70
2018-08-13T16:32:20.967Z,24.50
2018-08-13T16:34:51.819Z,24.50
2018-08-13T16:37:23.874Z,24.50
2018-08-13T16:39:54.429Z,24.40
2018-08-13T16:42:25.021Z,24.20
2018-08-13T16:44:55.534Z,24.20
2018-08-13T16:47:26.209Z,23.90
2018-08-13T16:49:56.784Z,23.70
2018-08-13T16:52:27.333Z,23.30
2018-08-13T16:54:57.992Z,22.80
2018-08-13T16:57:28.718Z,23.10
2018-08-13T16:59:59.283Z,23.30
2018-08-13T17:02:29.678Z,23.40
2018-08-13T17:05:00.321Z,23.60
2018-08-13T17:07:30.679Z,23.70
2018-08-13T17:10:01.149Z,23.50
2018-08-13T17:12:32.461Z,23.40
2018-08-13T17:15:10.671Z,23.10
2018-08-13T17:17:41.467Z,23.20
2018-08-13T17:20:15.980Z,23.20
2018-08-13T17:22:46.476Z,23.10
2018-08-13T17:25:17.593Z,22.90
2018-08-13T17:27:48.062Z,23.00
2018-08-13T17:30:22.433Z,22.80
2018-08-13T17:32:55.139Z,22.80
2018-08-13T17:35:31.015Z,22.60
2018-08-13T17:38:02.284Z,22.40
2018-08-13T17:40:33.047Z,21.90
2018-08-13T17:43:11.083Z,21.30
2018-08-13T17:45:41.754Z,20.90
2018-08-13T17:48:12.966Z,20.80
2018-08-13T17:50:45.008Z,20.50
2018-08-13T17:53:16.670Z,20.50
2018-08-13T17:55:47.803Z,20.50
2018-08-13T17:58:18.177Z,20.40
2018-08-13T18:00:51.322Z,20.40
2018-08-13T18:03:21.933Z,20.50
2018-08-13T18:05:53.069Z,20.20
2018-08-13T18:08:23.539Z,20.40
2018-08-13T18:10:55.841Z,20.50
2018-08-13T18:13:26.173Z,20.50
2018-08-13T18:15:56.703Z,20.70
2018-08-13T18:18:27.165Z,20.70
2018-08-13T18:21:15.697Z,20.60
2018-08-13T18:23:46.124Z,20.80
2018-08-13T18:26:16.973Z,20.70
2018-08-13T18:28:47.354Z,20.40
2018-08-13T18:31:17.982Z,20.50
2018-08-13T18:33:48.744Z,20.50
2018-08-13T18:36:19.256Z,20.40
2018-08-13T18:38:49.821Z,20.40
2018-08-13T18:41:20.342Z,20.20
2018-08-13T18:43:50.722Z,20.20
2018-08-13T18:46:21.142Z,19.90
2018-08-13T18:48:52.262Z,20.00
2018-08-13T18:51:22.839Z,19.40
2018-08-13T18:53:53.282Z,19.90
2018-08-13T18:56:23.765Z,19.70
2018-08-13T18:58:54.389Z,19.60
2018-08-13T19:01:25.007Z,19.50
2018-08-13T19:03:55.510Z,19.60
2018-08-13T19:06:26.416Z,19.60
2018-08-13T19:08:56.843Z,19.70
2018-08-13T19:11:33.744Z,19.60
2018-08-13T19:14:06.198Z,19.70
2018-08-13T19:16:36.710Z,19.60
2018-08-13T19:19:07.390Z,19.70
2018-08-13T19:21:38.389Z,19.50
2018-08-13T19:24:09.462Z,19.50
2018-08-13T19:26:39.936Z,19.60
2018-08-13T19:29:10.539Z,19.50
2018-08-13T19:31:41.377Z,19.70
2018-08-13T19:34:12.006Z,19.40
2018-08-13T19:36:42.520Z,19.60
2018-08-13T19:39:14.147Z,19.30
2018-08-13T19:41:44.737Z,19.30
2018-08-13T19:44:19.476Z,19.00
2018-08-13T19:46:50.538Z,19.10
2018-08-13T19:49:21.314Z,19.00
2018-08-13T19:51:52.085Z,19.00
2018-08-13T19:54:22.430Z,18.90
2018-08-13T19:56:54.024Z,19.00
2018-08-13T19:59:24.747Z,19.30
2018-08-13T20:01:55.854Z,19.40
2018-08-13T20:04:26.626Z,19.40
2018-08-13T20:06:57.209Z,19.40
2018-08-13T20:09:27.982Z,19.40
2018-08-13T20:11:58.631Z,19.60
2018-08-13T20:14:28.870Z,19.50
2018-08-13T20:16:59.234Z,19.50
2018-08-13T20:19:30.010Z,19.60
2018-08-13T20:22:00.462Z,19.50
2018-08-13T20:24:31.477Z,19.40
2018-08-13T20:27:02.065Z,19.40
2018-08-13T20:29:32.752Z,19.60
2018-08-13T20:32:04.513Z,19.50
2018-08-13T20:34:35.804Z,19.40
2018-08-13T20:37:06.470Z,19.40
2018-08-13T20:39:37.117Z,19.50
2018-08-13T20:42:07.795Z,19.40
2018-08-13T20:44:38.354Z,19.40
2018-08-13T20:47:09.124Z,19.40
2018-08-13T20:49:39.889Z,19.30
2018-08-13T20:52:10.363Z,19.30
2018-08-13T20:54:40.856Z,19.30
2018-08-13T20:57:11.246Z,19.30
2018-08-13T20:59:42.574Z,19.30
2018-08-13T21:02:13.021Z,19.20
2018-08-13T21:04:43.422Z,19.30
2018-08-13T21:07:13.788Z,19.30
2018-08-13T21:09:44.188Z,19.30
2018-08-13T21:12:14.548Z,19.20
2018-08-13T21:14:44.946Z,19.30
2018-08-13T21:17:15.696Z,19.20
2018-08-13T21:19:46.042Z,19.20
2018-08-13T21:22:16.362Z,19.30
2018-08-13T21:24:46.995Z,19.10
2018-08-13T21:27:17.418Z,19.20
2018-08-13T21:29:47.846Z,19.30
2018-08-13T21:32:18.431Z,19.30
2018-08-13T21:34:48.851Z,19.10
2018-08-13T21:37:19.213Z,19.20
2018-08-13T21:39:50.117Z,19.20
2018-08-13T21:42:20.630Z,19.10
2018-08-13T21:44:51.159Z,19.50
2018-08-13T21:47:21.595Z,19.30
2018-08-13T21:49:52.309Z,19.30
2018-08-13T21:52:22.721Z,19.20
2018-08-13T21:54:53.187Z,18.90
2018-08-13T21:57:24.918Z,18.80
2018-08-13T21:59:55.948Z,18.80
2018-08-13T22:02:26.233Z,18.80
2018-08-13T22:04:56.558Z,18.70
2018-08-13T22:07:26.900Z,18.60
2018-08-13T22:09:57.175Z,18.60
2018-08-13T22:12:27.449Z,18.70
2018-08-13T22:14:58.812Z,18.60
2018-08-13T22:17:29.104Z,18.70
2018-08-13T22:20:00.648Z,18.60
2018-08-13T22:22:31.463Z,18.60
2018-08-13T22:25:04.015Z,18.50
2018-08-13T22:27:34.587Z,18.40
2018-08-13T22:30:07.403Z,18.40
2018-08-13T22:32:37.833Z,18.30
2018-08-13T22:35:09.971Z,18.40
2018-08-13T22:37:41.678Z,18.30
2018-08-13T22:40:15.924Z,18.40
2018-08-13T22:42:46.887Z,18.50
2018-08-13T22:45:25.038Z,18.50
2018-08-13T22:47:56.609Z,18.60
2018-08-13T22:50:27.746Z,18.60
2018-08-13T22:52:59.258Z,18.70
2018-08-13T22:55:30.751Z,18.70
2018-08-13T22:58:02.210Z,18.90
2018-08-13T23:00:33.624Z,18.80
2018-08-13T23:03:04.897Z,18.80
2018-08-13T23:05:36.527Z,18.90
2018-08-13T23:08:08.701Z,18.90
2018-08-13T23:10:41.163Z,18.90
2018-08-13T23:13:17.622Z,19.00
2018-08-13T23:15:48.911Z,19.20
2018-08-13T23:18:20.089Z,19.30
2018-08-13T23:20:51.065Z,19.00
2018-08-13T23:23:22.274Z,19.00
2018-08-13T23:25:53.772Z,19.10
2018-08-13T23:28:27.145Z,19.00
2018-08-13T23:30:58.261Z,19.10
2018-08-13T23:33:28.916Z,19.10
2018-08-13T23:36:00.100Z,19.20
2018-08-13T23:38:31.230Z,19.20
2018-08-13T23:41:03.100Z,19.30
2018-08-13T23:43:34.792Z,19.10
2018-08-13T23:46:05.090Z,19.00
2018-08-13T23:48:35.656Z,18.90
2018-08-13T23:51:07.271Z,19.10
2018-08-13T23:53:37.535Z,19.00
2018-08-13T23:56:08.868Z,19.10
2018-08-13T23:58:39.197Z,18.80
